ADDS METAR Data INFO
IDs: Format: Raw Decoded Include TAF

Data at: 0233 UTC 22 Jul 2017

KPEZ 220215Z AUTO 14012G17KT 10SM CLR 32/21 A2992 RMK AO2 T03200205
KPEZ 220155Z AUTO 15011G18KT 10SM CLR 33/20 A2991 RMK AO2 T03260197
KPEZ 220135Z AUTO 15009G19KT 10SM CLR 33/19 A2991 RMK AO2 T03340192
KPEZ 220115Z AUTO 14010G18KT 10SM CLR 34/19 A2990 RMK AO2 T03420187
KPEZ 220055Z AUTO 14012G17KT 10SM CLR 35/18 A2989 RMK AO2 T03500181
KPEZ 220035Z AUTO 13011G18KT 10SM CLR 36/18 A2989 RMK AO2 T03570176
KPEZ 220015Z AUTO 15007G15KT 10SM CLR 37/17 A2989 RMK AO2 T03650171
KPEZ 212355Z AUTO 13009G19KT 10SM CLR 37/18 A2989 RMK AO2 T03660175 10391 20358
KPEZ 212335Z AUTO 15011G17KT 10SM SCT090 37/17 A2989 RMK AO2 T03730168
KPEZ 212315Z AUTO 14007G14KT 10SM SCT090 38/15 A2989 RMK AO2 T03820150
KPEZ 212255Z AUTO 19006G15KT 10SM SCT090 38/15 A2990 RMK AO2 T03800147
KPEZ 212235Z AUTO 18008KT 10SM CLR 37/15 A2990 RMK AO2 T03710148
KPEZ 212215Z AUTO 14011G15KT 10SM SCT080 38/15 A2991 RMK AO2 T03810149
KPEZ 212155Z AUTO 14005KT 10SM SCT080 37/15 A2991 RMK AO2 T03710151
KPEZ 212135Z AUTO 15008G18KT 10SM SCT080 38/16 A2992 RMK AO2 T03840157
KPEZ 212115Z AUTO 12008KT 10SM SCT080 38/16 A2993 RMK AO2 T03800156
KPEZ 212055Z AUTO 18009KT 10SM CLR 38/15 A2993 RMK AO2 T03840146
KPEZ 212035Z AUTO 15007G15KT 10SM CLR 38/15 A2994 RMK AO2 T03830148
KPEZ 212015Z AUTO 14010G15KT 120V180 10SM CLR 39/16 A2995 RMK AO2 T03860155
KPEZ 211955Z AUTO 16006G15KT 10SM CLR 38/15 A2996 RMK AO2 T03810152
KPEZ 211935Z AUTO 13006G15KT 10SM CLR 37/15 A2998 RMK AO2 T03710150
KPEZ 211915Z AUTO 10008KT 10SM CLR 38/15 A2998 RMK AO2 T03780152
KPEZ 211855Z AUTO 17010KT 120V180 10SM CLR 37/15 A2999 RMK AO2 T03740153
KPEZ 211835Z AUTO 18008KT 140V200 10SM CLR 37/15 A3000 RMK AO2 T03670154
KPEZ 211815Z AUTO 17007KT 10SM CLR 36/16 A3001 RMK AO2 T03630159
KPEZ 211755Z AUTO 13005KT 10SM CLR 36/17 A3001 RMK AO2 T03580168 10361 20236
KPEZ 211735Z AUTO 18003KT 10SM CLR 35/17 A3003 RMK AO2 T03540170
KPEZ 211715Z AUTO 16005KT 10SM CLR 35/17 A3003 RMK AO2 T03490173
KPEZ 211655Z AUTO 18004KT 10SM CLR 34/18 A3003 RMK AO2 T03380183
KPEZ 211635Z AUTO 19010G14KT 10SM CLR 34/18 A3004 RMK AO2 T03350184
KPEZ 211615Z AUTO 14005KT 10SM CLR 33/19 A3005 RMK AO2 T03290188
KPEZ 211555Z AUTO 16008KT 10SM CLR 32/20 A3005 RMK AO2 T03190195
KPEZ 211535Z AUTO 17006KT 10SM CLR 31/20 A3005 RMK AO2 T03130201
KPEZ 211515Z AUTO 16006KT 10SM CLR 31/21 A3005 RMK AO2 T03070208
KPEZ 211455Z AUTO 18005KT 10SM CLR 30/21 A3005 RMK AO2 T03010210
KPEZ 211435Z AUTO 17005KT 10SM CLR 29/22 A3005 RMK AO2 T02920215
KPEZ 211415Z AUTO 19005KT 10SM CLR 28/23 A3005 RMK AO2 T02830225
KPEZ 211355Z AUTO 16003KT 10SM CLR 28/23 A3005 RMK AO2 T02770231
KPEZ 211335Z AUTO 13003KT 10SM CLR 27/23 A3005 RMK AO2 T02650232
KPEZ 211315Z AUTO 11003KT 10SM CLR 26/23 A3004 RMK AO2 T02600232
KPEZ 211255Z AUTO 10003KT 10SM CLR 25/23 A3003 RMK AO2 T02520232
KPEZ 211235Z AUTO 00000KT 10SM CLR 24/23 A3003 RMK AO2 T02410229
KPEZ 211215Z AUTO 00000KT 10SM CLR 24/23 A3002 RMK AO2 T02360225
KPEZ 211155Z AUTO 00000KT 10SM CLR 24/23 A3002 RMK AO2 T02380225 10278 20238
KPEZ 211135Z AUTO 00000KT 10SM CLR 24/23 A3001 RMK AO2 T02390225
KPEZ 211115Z AUTO 00000KT 10SM CLR 24/23 A3001 RMK AO2 T02400225
KPEZ 211055Z AUTO 00000KT 10SM CLR 24/23 A3000 RMK AO2 T02410225
KPEZ 211035Z AUTO 00000KT 10SM CLR 25/23 A3000 RMK AO2 T02460226
KPEZ 211015Z AUTO 00000KT 10SM CLR 25/23 A3000 RMK AO2 T02500228
KPEZ 210955Z AUTO 00000KT 10SM CLR 25/23 A2999 RMK AO2 T02500228
KPEZ 210935Z AUTO 00000KT 10SM CLR 25/23 A3000 RMK AO2 T02530228
KPEZ 210915Z AUTO 14003KT 10SM CLR 26/23 A3001 RMK AO2 T02560230
KPEZ 210855Z AUTO 00000KT 10SM CLR 26/23 A3002 RMK AO2 T02570230
KPEZ 210835Z AUTO 16003KT 10SM CLR 26/23 A3001 RMK AO2 T02600230
KPEZ 210815Z AUTO 17004KT 10SM CLR 26/23 A3002 RMK AO2 T02620230
KPEZ 210755Z AUTO 16004KT 10SM CLR 27/23 A3003 RMK AO2 T02650230
KPEZ 210735Z AUTO 16004KT 10SM CLR 27/23 A3003 RMK AO2 T02670228
KPEZ 210715Z AUTO 15005KT 10SM CLR 27/23 A3003 RMK AO2 T02680225
KPEZ 210655Z AUTO 16006KT 10SM CLR 27/22 A3003 RMK AO2 T02700223
KPEZ 210635Z AUTO 16006KT 10SM CLR 27/22 A3004 RMK AO2 T02730220
KPEZ 210615Z AUTO 15004KT 10SM CLR 28/22 A3004 RMK AO2 T02750217
KPEZ 210555Z AUTO 16005KT 10SM CLR 28/22 A3004 RMK AO2 T02780216 10374 20278 403980240
KPEZ 210535Z AUTO 15007KT 10SM CLR 28/22 A3004 RMK AO2 T02800216
KPEZ 210515Z AUTO 15008KT 10SM CLR 28/22 A3004 RMK AO2 T02830217
KPEZ 210455Z AUTO 16008KT 10SM CLR 29/22 A3004 RMK AO2 T02860218
KPEZ 210435Z AUTO 16007G15KT 10SM CLR 29/22 A3003 RMK AO2 T02890216
KPEZ 210415Z AUTO 15006KT 10SM CLR 29/21 A3002 RMK AO2 T02920211
KPEZ 210355Z AUTO 16008KT 10SM CLR 30/21 A3002 RMK AO2 T02950210
KPEZ 210335Z AUTO 15009KT 10SM CLR 30/20 A3001 RMK AO2 T03000198
KPEZ 210320Z AUTO 15010G14KT 10SM CLR 31/20 A3001 RMK AO2 T03050196
KPEZ 210255Z AUTO 15007G14KT 10SM CLR 31/19 A2999 RMK AO2 T03100187
KPEZ 210235Z AUTO 15011G16KT 10SM CLR 32/18 A2998 RMK AO2 T03170175
KPEZ 210215Z AUTO 14009G15KT 10SM CLR 32/19 A2998 RMK AO2 T03230186
KPEZ 210155Z AUTO 15014G19KT 10SM CLR 33/19 A2997 RMK AO2 T03280193
KPEZ 210135Z AUTO 15012G19KT 10SM CLR 34/20 A2996 RMK AO2 T03350200
KPEZ 210115Z AUTO 15011G17KT 10SM CLR 34/20 A2996 RMK AO2 T03440197
KPEZ 210055Z AUTO 14011G15KT 10SM CLR 35/19 A2996 RMK AO2 T03540187
KPEZ 210035Z AUTO 14011G23KT 10SM CLR 36/18 A2995 RMK AO2 T03600182
KPEZ 210015Z AUTO 14011G14KT 10SM CLR 37/16 A2995 RMK AO2 T03710161
KPEZ 202355Z AUTO 14007KT 10SM CLR 37/16 A2994 RMK AO2 T03710163 10398 20358
KPEZ 202335Z AUTO 16011G14KT 10SM CLR 38/16 A2995 RMK AO2 T03760161
KPEZ 202315Z AUTO 15010G14KT 10SM SCT080 38/17 A2996 RMK AO2 T03800167
KPEZ 202255Z AUTO 14008G16KT 10SM SCT080 38/17 A2996 RMK AO2 T03790169
KPEZ 202235Z AUTO 11008KT 10SM SCT080 39/17 A2997 RMK AO2 T03850173
KPEZ 202215Z AUTO 16006KT 10SM SCT080 SCT090 38/17 A2998 RMK AO2 T03750166
KPEZ 202155Z AUTO 12008KT 110V170 10SM SCT080 39/17 A2998 RMK AO2 T03940165
KPEZ 202135Z AUTO 21005G08KT 10SM SCT080 39/16 A2999 RMK AO2 T03940159
KPEZ 202115Z AUTO 15007KT 120V190 10SM SCT080 39/16 A2999 RMK AO2 T03870158
KPEZ 202055Z AUTO 15006KT 140V220 10SM CLR 39/16 A3001 RMK AO2 T03880155
KPEZ 202035Z AUTO 15008KT 10SM SCT075 39/16 A3002 RMK AO2 T03860158
KPEZ 202015Z AUTO 17009KT 140V220 10SM SCT075 38/17 A3003 RMK AO2 T03810166
KPEZ 201955Z AUTO 12008G14KT 10SM SCT070 38/16 A3003 RMK AO2 T03750162
KPEZ 201935Z AUTO 13005KT 10SM SCT070 37/17 A3004 RMK AO2 T03720165
KPEZ 201915Z AUTO 18008KT 10SM SCT065 38/17 A3005 RMK AO2 T03750166
KPEZ 201855Z AUTO 16005KT 10SM SCT065 37/17 A3006 RMK AO2 T03720172
KPEZ 201835Z AUTO 16008KT 10SM CLR 37/18 A3007 RMK AO2 T03660176
KPEZ 201815Z AUTO 16007KT 140V210 10SM CLR 36/17 A3008 RMK AO2 T03640172
KPEZ 201755Z AUTO 16008KT 10SM CLR 36/18 A3009 RMK AO2 T03620181 10362 20240
KPEZ 201735Z AUTO 19005KT 10SM CLR 35/18 A3010 RMK AO2 T03490182
KPEZ 201715Z AUTO 21005KT 10SM CLR 35/19 A3011 RMK AO2 T03450187
KPEZ 201655Z AUTO 19006KT 170V240 10SM CLR 34/19 A3012 RMK AO2 T03400188
KPEZ 201635Z AUTO 11007KT 100V170 10SM CLR 33/20 A3012 RMK AO2 T03330202
KPEZ 201615Z AUTO 16004KT 10SM CLR 33/21 A3013 RMK AO2 T03280205
KPEZ 201555Z AUTO 00000KT 10SM CLR 32/20 A3014 RMK AO2 T03180204
KPEZ 201535Z AUTO 17006KT 10SM CLR 32/21 A3014 RMK AO2 T03150212
KPEZ 201515Z AUTO 16007KT 10SM CLR 31/22 A3014 RMK AO2 T03080215
KPEZ 201455Z AUTO 15007KT 10SM CLR 30/22 A3014 RMK AO2 T03000219
KPEZ 201435Z AUTO 14005KT 10SM CLR 30/22 A3015 RMK AO2 T02950223